createdAt,value
2023-02-28T00:00:28.967Z,80.12
2023-02-28T00:01:29.404Z,79.94
2023-02-28T00:02:29.008Z,79.87
2023-02-28T00:03:28.973Z,79.86
2023-02-28T00:04:28.953Z,79.81
2023-02-28T00:05:28.914Z,79.67
2023-02-28T00:06:29.466Z,79.23
2023-02-28T00:07:28.888Z,78.88
2023-02-28T00:08:28.921Z,78.67
2023-02-28T00:09:28.893Z,78.83
2023-02-28T00:10:28.893Z,78.73
2023-02-28T00:11:29.262Z,78.55
2023-02-28T00:12:28.847Z,78.42
2023-02-28T00:13:28.845Z,78.32
2023-02-28T00:14:28.828Z,78.19
2023-02-28T00:15:28.873Z,77.81
2023-02-28T00:16:28.872Z,77.49
2023-02-28T00:17:28.897Z,77.52
2023-02-28T00:18:31.380Z,77.55
2023-02-28T00:19:28.785Z,77.76
2023-02-28T00:20:28.811Z,77.66
2023-02-28T00:21:29.113Z,77.32
2023-02-28T00:22:28.766Z,77.09
2023-02-28T00:23:28.761Z,76.89
2023-02-28T00:24:28.731Z,76.96
2023-02-28T00:25:28.741Z,76.79
2023-02-28T00:26:28.708Z,76.67
2023-02-28T00:27:28.762Z,76.36
2023-02-28T00:28:28.709Z,76.31
2023-02-28T00:29:28.684Z,76.22
2023-02-28T00:30:28.784Z,76.16
2023-02-28T00:31:29.072Z,75.89
2023-02-28T00:32:28.644Z,75.79
2023-02-28T00:33:28.775Z,75.55
2023-02-28T00:34:28.657Z,75.41
2023-02-28T00:35:28.725Z,75.38
2023-02-28T00:36:28.696Z,75.55
2023-02-28T00:37:28.607Z,75.70
2023-02-28T00:38:28.592Z,75.27
2023-02-28T00:39:28.656Z,75.17
2023-02-28T00:40:28.628Z,75.09
2023-02-28T00:41:28.880Z,75.09
2023-02-28T00:42:28.560Z,75.04
2023-02-28T00:43:28.593Z,75.10
2023-02-28T00:44:28.539Z,75.39
2023-02-28T00:45:28.553Z,75.50
2023-02-28T00:46:28.620Z,75.40
2023-02-28T00:47:28.601Z,75.15
2023-02-28T00:48:28.523Z,75.17
2023-02-28T00:49:28.538Z,75.35
2023-02-28T00:50:28.667Z,75.03
2023-02-28T00:51:28.794Z,74.77
2023-02-28T00:52:28.545Z,74.76
2023-02-28T00:53:28.518Z,74.73
2023-02-28T00:54:28.461Z,74.61
2023-02-28T00:55:28.527Z,75.02
2023-02-28T00:56:28.435Z,74.94
2023-02-28T00:57:28.428Z,75.00
2023-02-28T00:58:28.470Z,74.92
2023-02-28T00:59:28.410Z,75.01
2023-02-28T01:00:28.422Z,74.82
2023-02-28T01:01:28.828Z,74.54
2023-02-28T01:02:28.386Z,74.79
2023-02-28T01:03:28.381Z,75.00
2023-02-28T01:04:28.424Z,74.88
2023-02-28T01:05:28.344Z,74.74
2023-02-28T01:06:28.337Z,74.48
2023-02-28T01:07:28.324Z,74.08
2023-02-28T01:08:28.309Z,74.13
2023-02-28T01:09:28.328Z,74.31
2023-02-28T01:10:28.301Z,74.31
2023-02-28T01:11:28.648Z,74.46
2023-02-28T01:12:30.815Z,74.34
2023-02-28T01:13:28.297Z,74.57
2023-02-28T01:14:28.264Z,74.47
2023-02-28T01:15:28.297Z,74.45
2023-02-28T01:16:28.268Z,74.41
2023-02-28T01:17:28.285Z,74.24
2023-02-28T01:18:28.238Z,73.95
2023-02-28T01:19:28.259Z,74.11
2023-02-28T01:20:28.207Z,74.53
2023-02-28T01:21:28.608Z,74.52
2023-02-28T01:22:28.196Z,74.55
2023-02-28T01:23:28.183Z,74.27
2023-02-28T01:24:28.174Z,74.26
2023-02-28T01:25:28.227Z,74.33
2023-02-28T01:26:28.145Z,74.54
2023-02-28T01:27:28.211Z,74.55
2023-02-28T01:28:28.138Z,74.62
2023-02-28T01:29:28.139Z,75.02
2023-02-28T01:30:28.129Z,74.86
2023-02-28T01:31:28.590Z,75.07
2023-02-28T01:32:28.087Z,74.64
2023-02-28T01:33:28.103Z,74.53
2023-02-28T01:34:28.080Z,74.09
2023-02-28T01:35:28.099Z,74.22
2023-02-28T01:36:28.094Z,74.21
2023-02-28T01:37:28.050Z,74.30
2023-02-28T01:38:28.086Z,74.51
2023-02-28T01:39:28.039Z,74.86
2023-02-28T01:40:28.011Z,75.06
2023-02-28T01:41:28.565Z,74.79
2023-02-28T01:42:27.997Z,74.76
2023-02-28T01:43:28.028Z,74.94
2023-02-28T01:44:27.981Z,75.34
2023-02-28T01:45:27.986Z,75.30
2023-02-28T01:46:27.968Z,75.39
2023-02-28T01:47:27.965Z,75.21
2023-02-28T01:48:27.934Z,75.14
2023-02-28T01:49:27.942Z,75.35
2023-02-28T01:50:27.922Z,75.28
2023-02-28T01:51:28.294Z,75.11
2023-02-28T01:52:27.911Z,75.21
2023-02-28T01:53:27.893Z,75.32
2023-02-28T01:54:27.925Z,75.22
2023-02-28T01:55:27.886Z,75.19
2023-02-28T01:56:27.872Z,75.06
2023-02-28T01:57:27.867Z,74.89
2023-02-28T01:58:27.845Z,74.97
2023-02-28T01:59:27.858Z,75.27
2023-02-28T02:00:27.916Z,75.12
2023-02-28T02:01:28.309Z,75.29
2023-02-28T02:02:27.884Z,75.40
2023-02-28T02:03:27.818Z,75.42
2023-02-28T02:04:27.809Z,75.46
2023-02-28T02:05:27.790Z,75.52
2023-02-28T02:06:27.792Z,75.66
2023-02-28T02:07:27.861Z,75.73
2023-02-28T02:08:27.769Z,75.93
2023-02-28T02:09:27.743Z,75.67
2023-02-28T02:10:27.723Z,75.75
2023-02-28T02:11:28.243Z,75.95
2023-02-28T02:12:27.711Z,75.72
2023-02-28T02:13:27.728Z,75.66
2023-02-28T02:14:27.695Z,75.70
2023-02-28T02:15:27.702Z,75.75
2023-02-28T02:16:27.696Z,75.83
2023-02-28T02:17:27.659Z,75.67
2023-02-28T02:18:27.654Z,75.83
2023-02-28T02:19:27.641Z,75.75
2023-02-28T02:20:27.648Z,75.52
2023-02-28T02:21:28.073Z,75.68
2023-02-28T02:22:27.614Z,75.97
2023-02-28T02:23:27.618Z,76.11
2023-02-28T02:24:27.591Z,75.61
2023-02-28T02:25:27.606Z,75.54
2023-02-28T02:26:27.625Z,75.61
2023-02-28T02:27:27.588Z,75.94
2023-02-28T02:28:27.640Z,75.81
2023-02-28T02:29:27.553Z,75.84
2023-02-28T02:30:27.545Z,75.96
2023-02-28T02:31:27.902Z,75.95
2023-02-28T02:32:27.536Z,75.61
2023-02-28T02:33:27.517Z,75.72
2023-02-28T02:34:27.508Z,75.75
2023-02-28T02:35:27.539Z,75.56
2023-02-28T02:36:27.482Z,75.70
2023-02-28T02:37:28.451Z,75.50
2023-02-28T02:38:27.486Z,75.39
2023-02-28T02:39:27.459Z,75.26
2023-02-28T02:40:27.468Z,75.21
2023-02-28T02:41:27.796Z,75.16
2023-02-28T02:42:27.484Z,75.41
2023-02-28T02:43:27.421Z,75.32
2023-02-28T02:44:27.406Z,75.20
2023-02-28T02:45:27.400Z,74.90
2023-02-28T02:46:27.443Z,74.85
2023-02-28T02:47:27.386Z,74.68
2023-02-28T02:48:27.407Z,74.61
2023-02-28T02:49:27.384Z,74.99
2023-02-28T02:50:27.366Z,74.80
2023-02-28T02:51:27.587Z,74.72
2023-02-28T02:52:27.350Z,74.86
2023-02-28T02:53:27.343Z,74.95
2023-02-28T02:54:27.358Z,74.62
2023-02-28T02:55:27.305Z,74.55
2023-02-28T02:56:27.337Z,74.80
2023-02-28T02:57:27.309Z,74.80
2023-02-28T02:58:27.287Z,74.60
2023-02-28T02:59:27.268Z,74.76
2023-02-28T03:00:27.268Z,74.85
2023-02-28T03:01:27.637Z,74.71
2023-02-28T03:02:27.289Z,74.64
2023-02-28T03:03:27.237Z,74.65
2023-02-28T03:04:27.225Z,74.47
2023-02-28T03:05:27.226Z,74.37
2023-02-28T03:06:27.196Z,74.52
2023-02-28T03:07:27.181Z,74.69
2023-02-28T03:08:27.190Z,74.64
2023-02-28T03:09:27.165Z,74.44
2023-02-28T03:10:27.175Z,74.45
2023-02-28T03:11:27.598Z,74.38
2023-02-28T03:12:27.151Z,74.33
2023-02-28T03:13:27.125Z,74.40
2023-02-28T03:14:27.136Z,74.63
2023-02-28T03:15:27.977Z,74.41
2023-02-28T03:16:27.149Z,74.54
2023-02-28T03:17:27.107Z,74.75
2023-02-28T03:18:27.111Z,74.77
2023-02-28T03:19:27.099Z,74.44
2023-02-28T03:20:27.075Z,74.43
2023-02-28T03:21:27.362Z,74.36
2023-02-28T03:22:27.046Z,74.58
2023-02-28T03:23:27.033Z,74.55
2023-02-28T03:24:27.061Z,74.50
2023-02-28T03:25:27.076Z,74.43
2023-02-28T03:26:27.008Z,74.64
2023-02-28T03:27:27.012Z,74.57
2023-02-28T03:28:27.027Z,74.51
2023-02-28T03:29:26.982Z,74.54
2023-02-28T03:30:27.054Z,74.69
2023-02-28T03:31:27.358Z,74.88
2023-02-28T03:32:27.016Z,74.86
2023-02-28T03:33:27.054Z,74.89
2023-02-28T03:34:27.028Z,74.64
2023-02-28T03:35:26.994Z,74.52
2023-02-28T03:36:26.938Z,74.41
2023-02-28T03:37:27.005Z,74.36
2023-02-28T03:38:26.911Z,74.68
2023-02-28T03:39:26.895Z,74.87
2023-02-28T03:40:26.935Z,75.02
2023-02-28T03:41:27.315Z,74.78
2023-02-28T03:42:26.879Z,74.83
2023-02-28T03:43:26.860Z,75.10
2023-02-28T03:44:26.878Z,74.73
2023-02-28T03:45:26.831Z,74.71
2023-02-28T03:46:26.837Z,74.78
2023-02-28T03:47:26.825Z,74.90
2023-02-28T03:48:26.811Z,74.84
2023-02-28T03:49:26.834Z,74.72
2023-02-28T03:50:26.790Z,74.59
2023-02-28T03:51:27.033Z,74.76
2023-02-28T03:52:26.874Z,74.80
2023-02-28T03:53:26.755Z,74.79
2023-02-28T03:54:26.763Z,74.93
2023-02-28T03:55:26.743Z,74.89
2023-02-28T03:56:26.798Z,74.72
2023-02-28T03:57:26.733Z,74.84
2023-02-28T03:58:26.729Z,74.81
2023-02-28T03:59:26.718Z,74.61
2023-02-28T04:00:27.719Z,74.72
2023-02-28T04:01:27.168Z,74.76
2023-02-28T04:02:26.708Z,74.76
2023-02-28T04:03:26.675Z,74.86
2023-02-28T04:04:26.763Z,74.92
2023-02-28T04:05:26.674Z,74.78
2023-02-28T04:06:26.640Z,75.10
2023-02-28T04:07:26.621Z,75.08
2023-02-28T04:08:26.635Z,74.97
2023-02-28T04:09:26.662Z,75.14
2023-02-28T04:10:26.598Z,75.27
2023-02-28T04:11:27.007Z,75.24
2023-02-28T04:12:26.584Z,75.39
2023-02-28T04:13:26.573Z,75.54
2023-02-28T04:14:26.559Z,75.59
2023-02-28T04:15:26.582Z,75.45
2023-02-28T04:16:35.069Z,75.34
2023-02-28T04:17:26.541Z,75.53
2023-02-28T04:18:26.519Z,75.37
2023-02-28T04:19:26.562Z,75.44
2023-02-28T04:20:26.546Z,75.44
2023-02-28T04:21:27.875Z,75.32
2023-02-28T04:22:26.485Z,75.26
2023-02-28T04:23:26.488Z,75.30
2023-02-28T04:24:26.475Z,75.49
2023-02-28T04:25:26.461Z,75.58
2023-02-28T04:26:26.507Z,75.73
2023-02-28T04:27:26.431Z,75.71
2023-02-28T04:28:26.433Z,75.76
2023-02-28T04:29:26.453Z,75.74
2023-02-28T04:30:26.407Z,75.72
2023-02-28T04:31:26.705Z,75.68
2023-02-28T04:32:26.482Z,75.47
2023-02-28T04:33:26.376Z,75.43
2023-02-28T04:34:26.375Z,75.33
2023-02-28T04:35:26.420Z,75.35
2023-02-28T04:36:26.373Z,75.49
2023-02-28T04:37:26.357Z,75.45
2023-02-28T04:38:26.352Z,75.55
2023-02-28T04:39:26.323Z,75.62
2023-02-28T04:40:26.317Z,75.59
2023-02-28T04:41:26.314Z,75.40
2023-02-28T04:42:26.300Z,75.43
2023-02-28T04:43:26.285Z,75.46
2023-02-28T04:44:26.292Z,75.38
2023-02-28T04:45:26.322Z,75.36
2023-02-28T04:46:26.275Z,75.31
2023-02-28T04:47:26.262Z,75.07
2023-02-28T04:48:26.273Z,75.24
2023-02-28T04:49:26.258Z,75.32
2023-02-28T04:50:26.218Z,75.50
2023-02-28T04:51:26.207Z,75.55
2023-02-28T04:52:26.229Z,75.53
2023-02-28T04:53:26.212Z,75.56
2023-02-28T04:54:26.197Z,75.55
2023-02-28T04:55:26.221Z,75.89
2023-02-28T04:56:26.173Z,75.54
2023-02-28T04:57:26.160Z,75.48
2023-02-28T04:58:26.158Z,75.63
2023-02-28T04:59:26.137Z,75.75
2023-02-28T05:00:26.125Z,75.54
2023-02-28T05:01:26.257Z,75.61
2023-02-28T05:02:26.262Z,75.79
2023-02-28T05:03:27.989Z,75.66
2023-02-28T05:04:26.111Z,75.51
2023-02-28T05:05:26.074Z,75.70
2023-02-28T05:06:26.059Z,75.56
2023-02-28T05:07:26.062Z,75.41
2023-02-28T05:08:26.074Z,75.51
2023-02-28T05:09:26.050Z,75.74
2023-02-28T05:10:26.039Z,75.92
2023-02-28T05:11:26.014Z,75.92
2023-02-28T05:12:26.045Z,75.90
2023-02-28T05:13:26.001Z,75.90
2023-02-28T05:14:26.014Z,75.94
2023-02-28T05:15:26.030Z,75.84
2023-02-28T05:16:26.021Z,75.99
2023-02-28T05:17:25.972Z,75.83
2023-02-28T05:18:26.009Z,75.75
2023-02-28T05:19:25.942Z,75.78
2023-02-28T05:20:25.950Z,75.73
2023-02-28T05:21:26.207Z,75.63
2023-02-28T05:22:25.916Z,75.75
2023-02-28T05:23:25.925Z,75.75
2023-02-28T05:24:25.951Z,75.65
2023-02-28T05:25:25.877Z,75.65
2023-02-28T05:26:25.909Z,75.59
2023-02-28T05:27:25.856Z,75.61
2023-02-28T05:28:25.891Z,75.71
2023-02-28T05:29:25.851Z,75.74
2023-02-28T05:30:25.858Z,75.80
2023-02-28T05:31:25.859Z,75.92
2023-02-28T05:32:25.869Z,76.07
2023-02-28T05:33:25.824Z,76.11
2023-02-28T05:34:25.801Z,76.05
2023-02-28T05:35:25.804Z,76.14
2023-02-28T05:36:25.797Z,76.19
2023-02-28T05:37:25.776Z,76.13
2023-02-28T05:38:25.771Z,76.25
2023-02-28T05:39:25.771Z,76.16
2023-02-28T05:40:25.853Z,76.08
2023-02-28T05:41:25.776Z,76.10
2023-02-28T05:42:25.686Z,76.05
2023-02-28T05:43:25.672Z,75.92
2023-02-28T05:44:25.703Z,75.92
2023-02-28T05:45:25.657Z,76.12
2023-02-28T05:46:25.635Z,76.02
2023-02-28T05:47:25.618Z,75.92
2023-02-28T05:48:25.706Z,76.06
2023-02-28T05:49:25.642Z,76.10
2023-02-28T05:50:25.601Z,76.20
2023-02-28T05:51:25.614Z,76.27
2023-02-28T05:52:25.573Z,76.35
2023-02-28T05:53:25.562Z,76.31
2023-02-28T05:54:25.569Z,76.46
2023-02-28T05:55:25.556Z,76.32
2023-02-28T05:56:25.545Z,76.12
2023-02-28T05:57:25.555Z,76.08
2023-02-28T05:58:25.519Z,76.08
2023-02-28T05:59:25.501Z,76.16
2023-02-28T06:00:25.525Z,76.30
2023-02-28T06:01:25.565Z,76.43
2023-02-28T06:02:25.532Z,76.58
2023-02-28T06:03:25.580Z,76.73
2023-02-28T06:04:32.012Z,76.66
2023-02-28T06:05:25.471Z,76.56
2023-02-28T06:06:25.465Z,76.47
2023-02-28T06:07:25.541Z,76.53
2023-02-28T06:08:25.454Z,76.57
2023-02-28T06:09:25.433Z,76.39
2023-02-28T06:10:25.415Z,76.20
2023-02-28T06:11:25.424Z,76.50
2023-02-28T06:12:25.394Z,76.69
2023-02-28T06:13:25.395Z,76.47
2023-02-28T06:14:25.375Z,76.18
2023-02-28T06:15:25.385Z,76.13
2023-02-28T06:16:25.470Z,76.26
2023-02-28T06:17:25.362Z,76.44
2023-02-28T06:18:25.404Z,76.59
2023-02-28T06:19:25.333Z,76.49
2023-02-28T06:20:25.348Z,76.54
2023-02-28T06:21:25.314Z,76.44
2023-02-28T06:22:25.311Z,76.18
2023-02-28T06:23:25.313Z,76.03
2023-02-28T06:24:25.304Z,76.07
2023-02-28T06:25:25.271Z,76.07
2023-02-28T06:26:25.296Z,76.11
2023-02-28T06:27:25.281Z,76.24
2023-02-28T06:28:25.259Z,76.37
2023-02-28T06:29:25.251Z,76.31
2023-02-28T06:30:25.225Z,76.26
2023-02-28T06:31:25.241Z,76.11
2023-02-28T06:32:25.373Z,76.15
2023-02-28T06:33:25.203Z,76.32
2023-02-28T06:34:25.189Z,76.39
2023-02-28T06:35:25.227Z,76.36
2023-02-28T06:36:25.164Z,76.49
2023-02-28T06:37:25.164Z,76.44
2023-02-28T06:38:25.188Z,76.56
2023-02-28T06:39:25.139Z,76.72
2023-02-28T06:40:25.147Z,76.47
2023-02-28T06:41:25.154Z,76.44
2023-02-28T06:42:25.123Z,76.52
2023-02-28T06:43:25.147Z,76.53
2023-02-28T06:44:25.141Z,76.39
2023-02-28T06:45:25.113Z,76.47
2023-02-28T06:46:25.114Z,76.42
2023-02-28T06:47:25.069Z,76.34
2023-02-28T06:48:25.136Z,76.52
2023-02-28T06:49:25.074Z,76.37
2023-02-28T06:50:25.038Z,76.14
2023-02-28T06:51:25.108Z,76.26
2023-02-28T06:52:25.045Z,76.30
2023-02-28T06:53:25.029Z,76.19
2023-02-28T06:54:25.019Z,76.02
2023-02-28T06:55:24.996Z,75.98
2023-02-28T06:56:25.025Z,75.72
2023-02-28T06:57:24.977Z,75.89
2023-02-28T06:58:24.972Z,76.03
2023-02-28T06:59:24.969Z,75.94
2023-02-28T07:00:24.973Z,76.07
2023-02-28T07:01:25.013Z,76.31
2023-02-28T07:02:24.922Z,76.29
2023-02-28T07:03:24.956Z,76.20
2023-02-28T07:04:24.945Z,76.21
2023-02-28T07:05:24.921Z,76.03
2023-02-28T07:06:24.908Z,76.20
2023-02-28T07:07:24.905Z,76.27
2023-02-28T07:08:25.570Z,76.17
2023-02-28T07:09:24.925Z,76.13
2023-02-28T07:10:24.874Z,76.08
2023-02-28T07:11:25.701Z,76.08
2023-02-28T07:12:24.917Z,76.27
2023-02-28T07:13:24.845Z,76.28
2023-02-28T07:14:24.807Z,75.95
2023-02-28T07:15:24.907Z,75.85
2023-02-28T07:16:24.867Z,75.86
2023-02-28T07:17:24.782Z,76.09
2023-02-28T07:18:24.801Z,76.13
2023-02-28T07:19:24.779Z,75.96
2023-02-28T07:20:24.762Z,76.04
2023-02-28T07:21:24.771Z,76.16
2023-02-28T07:22:24.756Z,76.10
2023-02-28T07:23:24.760Z,76.10
2023-02-28T07:24:24.725Z,76.10
2023-02-28T07:25:24.726Z,76.08
2023-02-28T07:26:24.731Z,75.93
2023-02-28T07:27:24.740Z,75.63
2023-02-28T07:28:24.694Z,75.59
2023-02-28T07:29:24.688Z,75.78
2023-02-28T07:30:24.701Z,76.01
2023-02-28T07:31:24.750Z,75.96
2023-02-28T07:32:24.781Z,75.91
2023-02-28T07:33:24.657Z,75.88
2023-02-28T07:34:24.643Z,75.98
2023-02-28T07:35:24.656Z,76.01
2023-02-28T07:36:24.648Z,76.01
2023-02-28T07:37:24.608Z,76.12
2023-02-28T07:38:24.594Z,76.03
2023-02-28T07:39:24.611Z,76.01
2023-02-28T07:40:24.571Z,75.95
2023-02-28T07:41:24.574Z,76.08
2023-02-28T07:42:24.556Z,76.32
2023-02-28T07:43:24.547Z,76.19
2023-02-28T07:44:24.550Z,76.06
2023-02-28T07:45:24.536Z,76.11
2023-02-28T07:46:24.558Z,76.11
2023-02-28T07:47:25.517Z,76.08
2023-02-28T07:48:24.523Z,76.09
2023-02-28T07:49:24.530Z,76.16
2023-02-28T07:50:26.797Z,76.14
2023-02-28T07:51:24.509Z,76.02
2023-02-28T07:52:24.454Z,76.18
2023-02-28T07:53:24.508Z,76.37
2023-02-28T07:54:24.436Z,76.47
2023-02-28T07:55:24.465Z,76.49
2023-02-28T07:56:24.439Z,76.45
2023-02-28T07:57:24.440Z,76.43
2023-02-28T07:58:24.407Z,76.09
2023-02-28T07:59:24.397Z,75.94
2023-02-28T08:00:24.422Z,76.03
2023-02-28T08:01:24.538Z,76.04
2023-02-28T08:02:24.382Z,76.11
2023-02-28T08:03:24.378Z,76.29
2023-02-28T08:04:24.352Z,76.37
2023-02-28T08:05:24.349Z,76.31
2023-02-28T08:06:24.344Z,76.48
2023-02-28T08:07:24.340Z,76.52
2023-02-28T08:08:24.321Z,76.37
2023-02-28T08:09:24.312Z,76.27
2023-02-28T08:10:24.324Z,76.23
2023-02-28T08:11:24.287Z,76.22
2023-02-28T08:12:24.300Z,75.89
2023-02-28T08:13:24.281Z,75.77
2023-02-28T08:14:24.604Z,75.92
2023-02-28T08:15:24.278Z,75.84
2023-02-28T08:16:24.308Z,75.78
2023-02-28T08:17:24.242Z,75.76
2023-02-28T08:18:24.223Z,75.75
2023-02-28T08:19:24.252Z,75.53
2023-02-28T08:20:24.267Z,75.53
2023-02-28T08:21:24.208Z,75.57
2023-02-28T08:22:24.204Z,75.55
2023-02-28T08:23:24.192Z,75.34
2023-02-28T08:24:24.178Z,75.35
2023-02-28T08:25:24.191Z,75.62
2023-02-28T08:26:24.147Z,75.70
2023-02-28T08:27:24.187Z,75.62
2023-02-28T08:28:26.700Z,75.58
2023-02-28T08:29:24.112Z,75.63
2023-02-28T08:30:24.139Z,75.68
2023-02-28T08:31:24.224Z,75.56
2023-02-28T08:32:29.707Z,75.41
2023-02-28T08:33:24.091Z,75.39
2023-02-28T08:34:24.192Z,75.15
2023-02-28T08:35:24.178Z,75.17
2023-02-28T08:36:24.098Z,75.25
2023-02-28T08:37:24.041Z,75.16
2023-02-28T08:38:24.044Z,75.20
2023-02-28T08:39:24.057Z,75.21
2023-02-28T08:40:24.009Z,75.42
2023-02-28T08:41:24.078Z,75.35
2023-02-28T08:42:24.023Z,75.10
2023-02-28T08:43:23.978Z,75.18
2023-02-28T08:44:23.994Z,75.16
2023-02-28T08:45:23.975Z,75.16
2023-02-28T08:46:23.996Z,75.11
2023-02-28T08:47:23.968Z,75.10
2023-02-28T08:48:23.923Z,75.07
2023-02-28T08:49:23.933Z,74.90
2023-02-28T08:50:23.916Z,74.89
2023-02-28T08:51:23.907Z,74.88
2023-02-28T08:52:23.934Z,74.89
2023-02-28T08:53:23.881Z,74.91
2023-02-28T08:54:23.922Z,74.88
2023-02-28T08:55:23.861Z,74.84
2023-02-28T08:56:23.859Z,74.80
2023-02-28T08:57:23.871Z,74.70
2023-02-28T08:58:23.876Z,74.72
2023-02-28T08:59:23.885Z,74.50
2023-02-28T09:00:23.813Z,74.69
2023-02-28T09:01:23.966Z,74.35
2023-02-28T09:02:23.835Z,74.13
2023-02-28T09:03:25.256Z,74.22
2023-02-28T09:04:25.381Z,74.29
2023-02-28T09:05:23.828Z,74.27
2023-02-28T09:06:23.752Z,74.28
2023-02-28T09:07:23.769Z,74.22
2023-02-28T09:08:23.741Z,73.97
2023-02-28T09:09:23.764Z,73.93
2023-02-28T09:10:23.722Z,73.79
2023-02-28T09:11:23.770Z,73.96
2023-02-28T09:12:23.730Z,73.96
2023-02-28T09:13:23.685Z,73.82
2023-02-28T09:14:23.801Z,73.95
2023-02-28T09:15:23.683Z,74.03
2023-02-28T09:16:23.710Z,73.88
2023-02-28T09:17:23.672Z,73.77
2023-02-28T09:18:23.687Z,73.70
2023-02-28T09:19:23.652Z,73.49
2023-02-28T09:20:23.642Z,73.74
2023-02-28T09:21:23.631Z,73.43
2023-02-28T09:22:23.699Z,73.20
2023-02-28T09:23:23.598Z,72.99
2023-02-28T09:24:23.618Z,72.92
2023-02-28T09:25:23.633Z,73.15
2023-02-28T09:26:23.588Z,73.37
2023-02-28T09:27:23.567Z,73.45
2023-02-28T09:28:23.575Z,73.54
2023-02-28T09:29:23.647Z,73.47
2023-02-28T09:30:23.601Z,73.47
2023-02-28T09:31:23.573Z,73.36
2023-02-28T09:32:23.604Z,73.30
2023-02-28T09:33:23.508Z,72.89
2023-02-28T09:34:23.566Z,72.83
2023-02-28T09:35:23.535Z,73.03
2023-02-28T09:36:28.970Z,72.85
2023-02-28T09:37:23.493Z,72.94
2023-02-28T09:38:23.479Z,72.77
2023-02-28T09:39:23.509Z,72.88
2023-02-28T09:40:23.432Z,72.77
2023-02-28T09:41:23.460Z,72.72
2023-02-28T09:42:23.489Z,72.39
2023-02-28T09:43:23.899Z,72.11
2023-02-28T09:44:23.414Z,71.89
2023-02-28T09:45:23.399Z,71.81
2023-02-28T09:46:23.470Z,71.80
2023-02-28T09:47:23.364Z,71.75
2023-02-28T09:48:23.378Z,71.41
2023-02-28T09:49:23.425Z,71.39
2023-02-28T09:50:23.455Z,71.45
2023-02-28T09:51:23.332Z,71.42
2023-02-28T09:52:23.323Z,71.29
2023-02-28T09:53:23.331Z,71.11
2023-02-28T09:54:23.305Z,71.11
2023-02-28T09:55:23.301Z,71.33
2023-02-28T09:56:23.290Z,71.28
2023-02-28T09:57:23.266Z,71.11
2023-02-28T09:58:23.262Z,70.99
2023-02-28T09:59:23.256Z,70.89
2023-02-28T10:00:23.529Z,70.73
2023-02-28T10:01:23.271Z,70.67
2023-02-28T10:02:23.274Z,70.53
2023-02-28T10:03:23.214Z,70.45
2023-02-28T10:04:23.263Z,70.12
2023-02-28T10:05:23.236Z,69.78
2023-02-28T10:06:23.202Z,69.91
2023-02-28T10:07:23.188Z,69.62
2023-02-28T10:08:23.192Z,69.08
2023-02-28T10:09:23.218Z,69.21
2023-02-28T10:10:23.150Z,69.57
2023-02-28T10:11:23.157Z,69.23
2023-02-28T10:12:23.137Z,68.87
2023-02-28T10:13:23.134Z,68.75
2023-02-28T10:14:23.142Z,68.57
2023-02-28T10:15:23.093Z,68.86
2023-02-28T10:16:23.081Z,68.74
2023-02-28T10:17:23.230Z,68.17
2023-02-28T10:18:23.074Z,68.05
2023-02-28T10:19:23.110Z,68.10
2023-02-28T10:20:23.082Z,68.02
2023-02-28T10:21:23.060Z,67.68
2023-02-28T10:22:23.027Z,67.93
2023-02-28T10:23:23.040Z,68.46
2023-02-28T10:24:23.015Z,68.55
2023-02-28T10:25:23.040Z,68.50
2023-02-28T10:26:23.020Z,68.62
2023-02-28T10:27:23.011Z,68.68
2023-02-28T10:28:23.002Z,68.83
2023-02-28T10:29:22.992Z,68.94
2023-02-28T10:30:22.998Z,68.60
2023-02-28T10:31:24.767Z,68.95
2023-02-28T10:32:23.085Z,68.44
2023-02-28T10:33:23.038Z,68.02
2023-02-28T10:34:22.955Z,68.08
2023-02-28T10:35:22.940Z,68.01
2023-02-28T10:36:22.992Z,68.19
2023-02-28T10:37:22.880Z,68.01
2023-02-28T10:38:22.891Z,67.66
2023-02-28T10:39:22.888Z,67.31
2023-02-28T10:40:22.884Z,66.54
2023-02-28T10:41:22.850Z,66.24
2023-02-28T10:42:22.886Z,65.94
2023-02-28T10:43:22.877Z,65.48
2023-02-28T10:44:22.876Z,65.75
2023-02-28T10:45:22.840Z,64.58
2023-02-28T10:46:23.763Z,64.39
2023-02-28T10:47:22.918Z,64.34
2023-02-28T10:48:22.811Z,64.13
2023-02-28T10:49:22.936Z,63.86
2023-02-28T10:50:22.811Z,63.66
2023-02-28T10:51:22.874Z,63.98
2023-02-28T10:52:22.743Z,64.07
2023-02-28T10:53:22.749Z,64.36
2023-02-28T10:54:22.743Z,64.26
2023-02-28T10:55:22.723Z,63.97
2023-02-28T10:56:22.751Z,64.03
2023-02-28T10:57:22.712Z,64.29
2023-02-28T10:58:22.732Z,63.92
2023-02-28T10:59:22.683Z,63.94
2023-02-28T11:00:22.695Z,63.56
2023-02-28T11:01:22.763Z,63.60
2023-02-28T11:02:22.715Z,64.07
2023-02-28T11:03:22.656Z,64.36
2023-02-28T11:04:23.189Z,64.07
2023-02-28T11:05:22.673Z,64.18
2023-02-28T11:06:22.850Z,63.89
2023-02-28T11:07:24.414Z,63.92
2023-02-28T11:08:22.606Z,64.33
2023-02-28T11:09:22.577Z,64.92
2023-02-28T11:10:22.558Z,64.84
2023-02-28T11:11:22.555Z,65.19
2023-02-28T11:12:22.566Z,65.14
2023-02-28T11:13:22.573Z,64.84
2023-02-28T11:14:22.534Z,65.11
2023-02-28T11:15:22.565Z,65.17
2023-02-28T11:16:22.753Z,64.89
2023-02-28T11:17:22.697Z,65.29
2023-02-28T11:18:22.487Z,65.40
2023-02-28T11:19:22.474Z,65.03
2023-02-28T11:20:22.526Z,65.02
2023-02-28T11:21:22.439Z,65.15
2023-02-28T11:22:22.446Z,64.71
2023-02-28T11:23:22.457Z,64.75
2023-02-28T11:24:22.413Z,64.58
2023-02-28T11:25:22.392Z,63.75
2023-02-28T11:26:22.383Z,63.54
2023-02-28T11:27:22.368Z,63.22
2023-02-28T11:28:22.420Z,63.02
2023-02-28T11:29:22.375Z,63.27
2023-02-28T11:30:22.370Z,62.47
2023-02-28T11:31:22.399Z,62.59
2023-02-28T11:32:22.534Z,63.00
2023-02-28T11:33:22.313Z,63.31
2023-02-28T11:34:22.302Z,63.94
2023-02-28T11:35:22.343Z,63.69
2023-02-28T11:36:22.326Z,62.85
2023-02-28T11:37:22.290Z,62.41
2023-02-28T11:38:22.354Z,61.73
2023-02-28T11:39:22.256Z,61.48
2023-02-28T11:40:22.263Z,60.85
2023-02-28T11:41:22.360Z,60.28
2023-02-28T11:42:22.257Z,60.01
2023-02-28T11:43:22.346Z,59.74
2023-02-28T11:44:22.229Z,60.10
2023-02-28T11:45:22.184Z,59.63
2023-02-28T11:46:22.270Z,59.28
2023-02-28T11:47:22.200Z,58.17
2023-02-28T11:48:22.163Z,58.01
2023-02-28T11:49:22.193Z,57.65
2023-02-28T11:50:22.165Z,57.35
2023-02-28T11:51:22.231Z,57.61
2023-02-28T11:52:22.170Z,56.83
2023-02-28T11:53:22.136Z,56.45
2023-02-28T11:54:22.131Z,56.33
2023-02-28T11:55:22.114Z,56.47
2023-02-28T11:56:22.116Z,57.25
2023-02-28T11:57:22.124Z,56.86
2023-02-28T11:58:22.097Z,57.21
2023-02-28T11:59:22.114Z,57.79
2023-02-28T12:00:22.064Z,57.86
2023-02-28T12:01:22.034Z,57.61
2023-02-28T12:02:22.104Z,57.77
2023-02-28T12:03:22.096Z,57.18
2023-02-28T12:04:22.225Z,57.01
2023-02-28T12:05:22.005Z,56.12
2023-02-28T12:06:21.993Z,55.21
2023-02-28T12:07:21.985Z,54.85
2023-02-28T12:08:21.999Z,55.32
2023-02-28T12:09:21.980Z,54.60
2023-02-28T12:10:21.951Z,54.81
2023-02-28T12:11:21.994Z,53.64
2023-02-28T12:12:23.814Z,54.60
2023-02-28T12:13:21.933Z,54.87
2023-02-28T12:14:21.946Z,54.80
2023-02-28T12:15:21.901Z,54.68
2023-02-28T12:16:21.960Z,54.88
2023-02-28T12:17:21.884Z,55.08
2023-02-28T12:18:21.862Z,55.17
2023-02-28T12:19:21.872Z,55.11
2023-02-28T12:20:21.870Z,54.80
2023-02-28T12:21:21.870Z,54.05
2023-02-28T12:22:21.916Z,55.40
2023-02-28T12:23:21.828Z,54.67
2023-02-28T12:24:21.810Z,54.82
2023-02-28T12:25:21.801Z,55.50
2023-02-28T12:26:21.811Z,55.36
2023-02-28T12:27:22.695Z,55.29
2023-02-28T12:28:21.804Z,55.00
2023-02-28T12:29:21.761Z,54.58
2023-02-28T12:30:21.747Z,54.37
2023-02-28T12:31:21.797Z,54.19
2023-02-28T12:32:21.881Z,54.28
2023-02-28T12:33:21.726Z,54.65
2023-02-28T12:34:21.727Z,54.86
2023-02-28T12:35:21.695Z,53.99
2023-02-28T12:36:21.709Z,53.34
2023-02-28T12:37:21.662Z,54.25
2023-02-28T12:38:21.695Z,53.27
2023-02-28T12:39:23.724Z,53.22
2023-02-28T12:40:21.657Z,53.02
2023-02-28T12:41:21.647Z,52.76
2023-02-28T12:42:21.658Z,52.57
2023-02-28T12:43:22.129Z,53.94
2023-02-28T12:44:21.620Z,53.89
2023-02-28T12:45:21.750Z,53.74
2023-02-28T12:46:21.666Z,54.98
2023-02-28T12:47:21.582Z,55.83
2023-02-28T12:48:21.557Z,56.59
2023-02-28T12:49:21.566Z,56.78
2023-02-28T12:50:21.531Z,56.49
2023-02-28T12:51:21.552Z,56.10
2023-02-28T12:52:21.508Z,55.94